Time;durP1;ratioP1;P1;durP2;ratioP2;P2;SDS_P1;SDS_P2;PMS_P1;PMS_P2;Temp;Humidity;BMP_temperature;BMP_pressure;BME280_temperature;BME280_humidity;BME280_pressure;Samples;Min_cycle;Max_cycle;Signal;HPM_P1;HPM_P2
2021/07/31 00:01:27;;;;;;;3.67;1.80;;;;;;;15.25;82.85;98442.75;5047340;28;20044;-64
2021/07/31 00:03:53;;;;;;;7.22;2.00;;;;;;;15.19;82.95;98445.69;5046343;28;20368;-64
2021/07/31 00:06:18;;;;;;;4.75;2.33;;;;;;;15.15;83.04;98444.06;5047448;28;20013;-64
2021/07/31 00:08:44;;;;;;;3.83;1.80;;;;;;;15.02;83.32;98567.41;5047423;28;20014;-64
2021/07/31 00:11:11;;;;;;;5.75;1.92;;;;;;;15.05;83.66;98458.59;5047463;28;20017;-64
2021/07/31 00:13:37;;;;;;;3.15;1.85;;;;;;;14.97;83.82;98455.41;5046258;28;20014;-64
2021/07/31 00:16:03;;;;;;;8.38;2.20;;;;;;;14.92;83.87;98441.47;5048454;28;20216;-64
2021/07/31 00:18:29;;;;;;;8.10;1.98;;;;;;;14.90;84.07;98449.47;5049422;28;20013;-64
2021/07/31 00:20:55;;;;;;;7.07;2.30;;;;;;;14.86;83.78;98444.34;5048455;28;20021;-64
2021/07/31 00:23:20;;;;;;;6.18;2.53;;;;;;;14.82;83.75;98442.75;5046181;28;20051;-64
2021/07/31 00:25:46;;;;;;;8.50;2.78;;;;;;;14.80;84.07;98463.13;5047130;28;20240;-64
2021/07/31 00:28:11;;;;;;;9.40;2.05;;;;;;;14.78;83.53;98454.41;5046926;28;20022;-64
2021/07/31 00:30:37;;;;;;;8.30;2.03;;;;;;;14.75;83.26;98443.94;5047488;28;20178;-64
2021/07/31 00:33:02;;;;;;;5.53;1.95;;;;;;;14.70;83.14;98440.59;5046067;28;20014;-64
2021/07/31 00:35:28;;;;;;;7.47;2.38;;;;;;;14.72;83.00;98433.44;5046065;28;20097;-64
2021/07/31 00:37:53;;;;;;;3.60;1.83;;;;;;;14.59;83.11;98421.59;5046289;28;20021;-64
2021/07/31 00:40:19;;;;;;;4.88;2.08;;;;;;;14.50;84.00;98421.94;5046897;28;20017;-64
2021/07/31 00:42:44;;;;;;;10.93;2.33;;;;;;;14.50;83.78;98420.19;5057825;28;20322;-64
2021/07/31 00:45:11;;;;;;;10.23;1.95;;;;;;;14.40;83.02;98413.47;5060096;28;20236;-64
2021/07/31 00:47:41;;;;;;;4.13;1.60;;;;;;;14.46;83.42;98430.94;5058712;28;20088;-64
2021/07/31 00:50:07;;;;;;;5.22;1.98;;;;;;;14.30;83.34;98416.56;5058610;28;20028;-64
2021/07/31 00:52:33;;;;;;;9.02;1.92;;;;;;;14.37;83.32;98415.41;5059746;28;20024;-64
2021/07/31 00:55:00;;;;;;;7.97;1.73;;;;;;;14.31;83.15;98410.34;5058906;28;20013;-64
2021/07/31 00:57:26;;;;;;;7.60;1.55;;;;;;;14.29;83.40;98412.16;5060096;28;20021;-64
2021/07/31 00:59:52;;;;;;;11.43;2.00;;;;;;;14.25;83.26;98407.91;5056778;28;20387;-64
2021/07/31 01:02:18;;;;;;;10.35;1.92;;;;;;;14.10;83.79;98405.78;5059054;28;20017;-64
2021/07/31 01:04:43;;;;;;;8.15;1.85;;;;;;;14.07;84.03;98474.72;5059845;28;20024;-64
2021/07/31 01:07:09;;;;;;;4.47;1.65;;;;;;;14.08;84.10;98407.66;5059195;28;20317;-64
2021/07/31 01:09:34;;;;;;;8.32;1.90;;;;;;;13.98;83.75;98417.69;5059520;28;20027;-64
2021/07/31 01:12:02;;;;;;;5.40;1.77;;;;;;;13.90;84.30;98403.91;5060919;28;20135;-64
2021/07/31 01:14:27;;;;;;;7.60;1.63;;;;;;;14.02;83.80;98403.41;5063652;28;20020;-64
2021/07/31 01:16:54;;;;;;;9.32;1.80;;;;;;;14.02;83.48;98444.91;5062553;28;20105;-64
2021/07/31 01:19:20;;;;;;;136.30;30.60;;;;;;;14.10;83.18;98448.13;5061720;28;20088;-64
2021/07/31 01:21:45;;;;;;;6.70;2.05;;;;;;;14.08;82.92;98466.72;5063733;28;20013;-64
2021/07/31 01:24:13;;;;;;;8.23;1.55;;;;;;;14.05;83.13;98427.13;5061084;28;20021;-65
2021/07/31 01:26:43;;;;;;;24.20;5.72;;;;;;;14.09;83.65;98419.94;5061836;28;20330;-65
2021/07/31 01:29:10;;;;;;;3.35;1.85;;;;;;;14.13;83.64;98418.91;5062856;28;20016;-64
2021/07/31 01:31:37;;;;;;;15.57;13.98;;;;;;;14.09;83.86;98412.00;5062503;28;20017;-64
2021/07/31 01:34:04;;;;;;;6.65;1.77;;;;;;;14.08;83.54;98408.50;5062776;28;20071;-64
2021/07/31 01:36:30;;;;;;;3.75;1.23;;;;;;;14.08;83.59;98397.06;5061930;28;20017;-64
2021/07/31 01:38:56;;;;;;;3.70;1.60;;;;;;;14.03;83.17;98404.28;5061875;28;20071;-64
2021/07/31 01:41:22;;;;;;;10.25;2.15;;;;;;;14.01;83.92;98387.59;5062344;28;20021;-64
2021/07/31 01:43:48;;;;;;;11.73;1.75;;;;;;;13.89;83.93;98406.59;5062944;28;20031;-64
2021/07/31 01:46:14;;;;;;;6.30;1.25;;;;;;;13.88;84.00;98378.38;5061512;28;20095;-64
2021/07/31 01:48:40;;;;;;;16.83;2.10;;;;;;;13.91;83.93;98383.56;5062114;28;20040;-64
2021/07/31 01:51:05;;;;;;;4.13;1.58;;;;;;;13.83;84.28;98375.91;5063301;28;20024;-64
2021/07/31 01:53:30;;;;;;;4.95;1.83;;;;;;;13.78;83.64;98379.66;5061358;28;20055;-64
2021/07/31 01:55:56;;;;;;;309.80;67.55;;;;;;;13.68;84.14;98365.91;5062855;28;20211;-64
2021/07/31 01:58:21;;;;;;;29.10;2.97;;;;;;;13.72;84.37;98407.19;5060008;28;20033;-64
2021/07/31 02:00:47;;;;;;;3.03;1.45;;;;;;;13.61;84.74;98435.81;5061250;28;20267;-64
2021/07/31 02:03:12;;;;;;;4.50;1.85;;;;;;;13.63;84.26;98377.53;5062969;28;20047;-64
2021/07/31 02:05:38;;;;;;;5.22;1.30;;;;;;;13.62;84.38;98366.13;5061383;28;20132;-64
2021/07/31 02:08:03;;;;;;;6.18;1.27;;;;;;;13.57;83.86;98362.75;5062786;28;20017;-64
2021/07/31 02:10:29;;;;;;;3.70;1.58;;;;;;;13.52;84.13;98369.13;5058058;28;20059;-64
2021/07/31 02:12:54;;;;;;;5.93;1.30;;;;;;;13.55;84.09;98372.53;5051560;28;20017;-64
2021/07/31 02:15:20;;;;;;;1.52;1.00;;;;;;;13.56;83.82;98362.81;5051055;28;20017;-64
2021/07/31 02:17:45;;;;;;;7.53;2.08;;;;;;;13.52;84.41;98366.50;5049529;28;20317;-64
2021/07/31 02:20:11;;;;;;;6.50;1.63;;;;;;;13.56;84.70;98408.63;5049476;28;20092;-64
2021/07/31 02:22:36;;;;;;;7.57;1.73;;;;;;;13.55;84.31;98379.59;5049611;28;20013;-64
2021/07/31 02:25:02;;;;;;;18.30;7.28;;;;;;;13.45;84.58;98362.34;5050465;28;20025;-64
2021/07/31 02:27:27;;;;;;;2.88;1.25;;;;;;;13.46;84.48;98362.28;5049309;28;20022;-64
2021/07/31 02:29:53;;;;;;;6.60;1.35;;;;;;;13.46;85.15;98364.06;5048809;28;20051;-64
2021/07/31 02:32:18;;;;;;;4.95;1.48;;;;;;;13.46;85.05;98364.06;5049122;28;20035;-64
2021/07/31 02:34:44;;;;;;;9.90;1.60;;;;;;;13.40;85.17;98358.97;5048149;28;20100;-64
2021/07/31 02:37:09;;;;;;;9.93;1.90;;;;;;;13.40;85.38;98358.97;5048482;28;20085;-64
2021/07/31 02:39:34;;;;;;;648.30;45.28;;;;;;;13.22;85.55;98357.00;5049039;28;20021;-64
2021/07/31 02:42:00;;;;;;;6.63;2.20;;;;;;;13.22;85.62;98354.34;5048947;28;20028;-64
2021/07/31 02:44:25;;;;;;;6.03;1.55;;;;;;;13.17;85.94;98372.13;5052466;28;20048;-64
2021/07/31 02:46:51;;;;;;;2.03;0.80;;;;;;;13.22;85.21;98412.50;5055430;28;20021;-64
2021/07/31 02:49:16;;;;;;;396.33;40.85;;;;;;;13.22;85.74;98389.56;5051128;28;20017;-64
2021/07/31 02:51:41;;;;;;;4.35;1.58;;;;;;;13.17;85.71;98361.56;5047751;28;20207;-64
2021/07/31 02:54:07;;;;;;;4.40;1.27;;;;;;;13.10;85.94;98355.59;5047640;28;20069;-64
2021/07/31 02:56:33;;;;;;;1.55;0.82;;;;;;;13.02;86.08;98347.97;5047642;28;20017;-64
2021/07/31 02:58:58;;;;;;;2.83;0.98;;;;;;;12.95;85.98;98341.09;5048521;28;20064;-64
2021/07/31 03:01:24;;;;;;;2.20;1.10;;;;;;;13.00;86.89;98455.47;5046379;28;20375;-64
2021/07/31 03:03:49;;;;;;;4.95;1.20;;;;;;;12.95;86.01;98390.44;5045185;28;20089;-64
2021/07/31 03:06:14;;;;;;;2.25;1.10;;;;;;;13.00;86.81;98349.78;5045311;28;20074;-64
2021/07/31 03:08:40;;;;;;;1.40;1.00;;;;;;;13.01;87.06;98351.50;5045174;28;20225;-64
2021/07/31 03:11:07;;;;;;;8.18;1.20;;;;;;;13.09;86.79;98356.53;5043947;28;20017;-64
2021/07/31 03:13:33;;;;;;;2.97;1.25;;;;;;;12.96;86.67;98348.13;5045013;28;20033;-64
2021/07/31 03:15:58;;;;;;;3.45;1.02;;;;;;;12.94;86.95;98343.78;5045023;28;20025;-64
2021/07/31 03:18:24;;;;;;;5.75;2.10;;;;;;;12.96;87.27;98402.72;5044958;28;20021;-64
2021/07/31 03:20:52;;;;;;;3.65;1.48;;;;;;;12.97;86.70;98352.50;5058014;28;20025;-64
2021/07/31 03:23:21;;;;;;;3.05;1.05;;;;;;;12.99;86.68;98345.41;5047072;28;20028;-64
2021/07/31 03:25:47;;;;;;;4.25;1.55;;;;;;;12.84;87.07;98327.41;5059781;28;20273;-64
2021/07/31 03:28:13;;;;;;;8.07;1.50;;;;;;;12.81;87.45;98343.34;5062016;28;20032;-64
2021/07/31 03:30:43;;;;;;;3.47;1.60;;;;;;;12.86;87.15;98354.63;5063983;28;20025;-64
2021/07/31 03:33:09;;;;;;;8.70;2.00;;;;;;;12.78;87.48;98454.38;5061217;28;20303;-64
2021/07/31 03:35:36;;;;;;;4.07;1.88;;;;;;;12.73;87.31;98350.66;5059638;28;20021;-64
2021/07/31 03:38:02;;;;;;;2.58;1.20;;;;;;;12.73;87.17;98350.66;5060990;28;20257;-64
2021/07/31 03:40:27;;;;;;;10.95;1.92;;;;;;;12.75;87.42;98338.25;5060102;28;20067;-64
2021/07/31 03:42:53;;;;;;;9.23;2.15;;;;;;;12.76;87.59;98435.03;5056290;28;20028;-64
2021/07/31 03:45:18;;;;;;;5.13;1.58;;;;;;;12.67;87.64;98448.56;5060515;28;20021;-64
2021/07/31 03:47:43;;;;;;;8.63;1.90;;;;;;;12.76;87.28;98408.63;5064443;28;20220;-64
2021/07/31 03:50:09;;;;;;;5.75;2.05;;;;;;;12.72;87.72;98411.44;5064359;28;20135;-64
2021/07/31 03:52:35;;;;;;;3.78;1.90;;;;;;;12.67;87.64;98392.22;5062625;28;20023;-64
2021/07/31 03:55:00;;;;;;;3.47;1.73;;;;;;;12.57;87.93;98396.91;5057732;28;20055;-64
2021/07/31 03:57:28;;;;;;;4.38;2.00;;;;;;;12.58;88.04;98403.94;5060956;28;20189;-64
2021/07/31 03:59:53;;;;;;;6.25;2.10;;;;;;;12.56;88.13;98411.03;5059006;28;20044;-64
2021/07/31 04:02:18;;;;;;;5.75;2.00;;;;;;;12.55;88.06;98348.59;5051145;28;20040;-64
2021/07/31 04:04:45;;;;;;;3.45;1.80;;;;;;;12.48;87.77;98360.28;5049287;28;20348;-64
2021/07/31 04:07:10;;;;;;;5.78;2.10;;;;;;;12.56;88.12;98400.47;5047620;28;20084;-64
2021/07/31 04:09:36;;;;;;;4.43;1.70;;;;;;;12.52;88.20;98417.34;5046440;28;20087;-64
2021/07/31 04:12:02;;;;;;;6.50;2.25;;;;;;;12.46;88.30;98414.88;5047419;28;20017;-64
2021/07/31 04:14:29;;;;;;;5.47;1.92;;;;;;;12.41;88.32;98348.16;5044281;28;20067;-64
2021/07/31 04:16:55;;;;;;;4.30;1.73;;;;;;;12.51;88.18;98344.34;5043996;28;20036;-64
2021/07/31 04:19:20;;;;;;;5.40;1.98;;;;;;;12.50;88.10;98466.66;5044004;28;20220;-64
2021/07/31 04:21:45;;;;;;;4.10;1.70;;;;;;;12.49;88.03;98376.97;5043882;28;20198;-64
2021/07/31 04:24:11;;;;;;;7.53;2.13;;;;;;;12.42;88.34;98349.91;5043955;28;20025;-64
2021/07/31 04:26:36;;;;;;;8.02;2.65;;;;;;;12.47;88.53;98337.41;5043920;28;20025;-64
2021/07/31 04:29:02;;;;;;;7.95;2.35;;;;;;;12.48;88.54;98349.72;5043879;28;20025;-64
2021/07/31 04:31:27;;;;;;;9.00;2.33;;;;;;;12.65;89.26;98405.47;5049877;28;20036;-64
2021/07/31 04:33:53;;;;;;;8.70;2.40;;;;;;;12.74;88.61;98489.72;5058864;28;20021;-64
2021/07/31 04:36:19;;;;;;;7.28;2.13;;;;;;;12.77;88.19;98418.31;5058838;28;20032;-64
2021/07/31 04:38:44;;;;;;;7.90;2.33;;;;;;;12.82;88.79;98371.47;5059804;28;20025;-64
2021/07/31 04:41:10;;;;;;;7.75;2.78;;;;;;;12.76;88.06;98370.81;5047256;28;20296;-64
2021/07/31 04:43:35;;;;;;;5.50;2.28;;;;;;;12.81;87.76;98361.81;5046206;28;20088;-64
2021/07/31 04:46:01;;;;;;;6.63;2.47;;;;;;;12.83;87.49;98346.81;5046015;28;20302;-64
2021/07/31 04:48:27;;;;;;;9.57;2.40;;;;;;;12.85;87.75;98354.69;5050265;28;20025;-64
2021/07/31 04:51:00;;;;;;;6.15;2.50;;;;;;;12.92;88.15;98362.31;5050199;28;20338;-64
2021/07/31 04:53:27;;;;;;;26.05;20.20;;;;;;;13.10;87.72;98500.09;5048583;28;20024;-64
2021/07/31 04:55:53;;;;;;;6.10;2.10;;;;;;;13.33;87.75;98384.78;5050344;28;20324;-64
2021/07/31 04:58:19;;;;;;;11.50;2.17;;;;;;;13.52;86.67;98375.28;5050046;28;20222;-64
2021/07/31 05:00:46;;;;;;;5.53;1.98;;;;;;;14.33;85.26;98392.63;5049793;28;20041;-64
2021/07/31 05:03:11;;;;;;;4.75;1.75;;;;;;;15.21;80.92;98422.59;5048722;28;20377;-64
2021/07/31 05:05:37;;;;;;;6.68;1.80;;;;;;;15.79;77.32;98405.97;5048801;28;20017;-64
2021/07/31 05:08:03;;;;;;;4.30;1.55;;;;;;;16.42;74.72;98599.66;5061012;28;20092;-64
2021/07/31 05:10:28;;;;;;;6.90;1.90;;;;;;;16.95;73.49;98542.38;5063141;28;20092;-64
2021/07/31 05:12:54;;;;;;;8.15;1.88;;;;;;;17.39;71.67;98643.16;5061478;28;20380;-64
2021/07/31 05:15:19;;;;;;;11.20;2.40;;;;;;;17.73;70.08;98547.50;5062782;28;20214;-64
2021/07/31 05:17:45;;;;;;;6.85;1.55;;;;;;;17.98;68.97;99901.19;5066269;28;20024;-64
2021/07/31 05:20:11;;;;;;;106.40;17.52;;;;;;;18.33;67.56;99104.03;5066094;28;20020;-64
2021/07/31 05:22:36;;;;;;;3.55;1.40;;;;;;;18.52;66.09;98887.28;5066112;28;20025;-64
2021/07/31 05:25:03;;;;;;;4.72;1.58;;;;;;;18.53;67.30;98765.50;5066174;28;20032;-64
2021/07/31 05:27:29;;;;;;;8.93;2.45;;;;;;;19.11;66.29;98759.00;5055244;28;20304;-64
2021/07/31 05:29:54;;;;;;;8.70;1.98;;;;;;;19.31;65.49;98766.00;5049466;28;20064;-64
2021/07/31 05:32:19;;;;;;;7.47;1.80;;;;;;;19.48;64.45;99719.19;5048115;28;20010;-64
2021/07/31 05:34:45;;;;;;;6.70;1.45;;;;;;;19.75;63.82;98920.28;5048844;28;20024;-64
2021/07/31 05:37:10;;;;;;;9.85;1.92;;;;;;;20.03;62.44;98901.84;5048518;28;20029;-64
2021/07/31 05:39:35;;;;;;;7.22;1.75;;;;;;;20.42;62.74;98824.03;5048163;28;20020;-64
2021/07/31 05:42:02;;;;;;;4.85;1.75;;;;;;;20.79;61.32;98711.31;5048332;28;20095;-64
2021/07/31 05:44:28;;;;;;;6.38;2.00;;;;;;;20.75;59.84;98689.22;5051456;28;20083;-64
2021/07/31 05:46:54;;;;;;;36.70;3.40;;;;;;;21.24;59.67;99477.88;5051027;28;20320;-64
2021/07/31 05:49:19;;;;;;;17.80;2.25;;;;;;;21.62;57.81;98971.44;5050250;28;20048;-65
2021/07/31 05:51:45;;;;;;;4.65;1.77;;;;;;;21.71;58.50;98890.50;5047923;28;20296;-65
2021/07/31 05:54:10;;;;;;;6.25;2.08;;;;;;;21.60;57.71;98866.16;5045646;28;20089;-65
2021/07/31 05:56:35;;;;;;;8.32;2.88;;;;;;;21.65;57.73;98735.50;5045644;28;20212;-65
2021/07/31 05:59:01;;;;;;;4.63;1.67;;;;;;;21.96;56.94;99115.94;5043830;28;20298;-65
2021/07/31 06:01:26;;;;;;;5.35;1.65;;;;;;;22.38;56.31;98891.69;5045477;28;20036;-65
2021/07/31 06:03:52;;;;;;;4.78;1.40;;;;;;;22.22;59.15;98804.22;5045676;28;20344;-65
2021/07/31 06:06:17;;;;;;;6.63;1.73;;;;;;;22.70;57.14;98787.69;5045651;28;20044;-65
2021/07/31 06:08:42;;;;;;;8.40;1.98;;;;;;;22.86;56.15;98723.97;5045439;28;20212;-65
2021/07/31 06:11:08;;;;;;;12.48;6.13;;;;;;;23.20;55.36;98683.13;5055826;28;20017;-65
2021/07/31 06:13:34;;;;;;;5.38;2.25;;;;;;;23.52;55.35;98679.06;5058117;28;20028;-65
2021/07/31 06:15:59;;;;;;;5.93;1.92;;;;;;;23.45;54.71;98658.13;5059360;28;20339;-65
2021/07/31 06:18:25;;;;;;;6.32;1.73;;;;;;;23.80;54.02;98660.03;5060241;28;20025;-65
2021/07/31 06:20:51;;;;;;;8.63;2.03;;;;;;;23.97;51.99;98619.34;5060128;28;20021;-65
2021/07/31 06:23:17;;;;;;;7.40;1.90;;;;;;;23.95;53.13;98610.53;5055493;28;20026;-65
2021/07/31 06:25:43;;;;;;;8.63;1.80;;;;;;;24.07;52.44;98582.72;5048918;28;20021;-65
2021/07/31 06:28:08;;;;;;;6.85;2.17;;;;;;;24.03;54.19;99239.25;5049097;28;20132;-65
2021/07/31 06:30:34;;;;;;;5.55;1.75;;;;;;;24.36;52.01;98882.75;5048943;28;20338;-65
2021/07/31 06:32:59;;;;;;;6.75;2.03;;;;;;;24.26;53.17;98857.47;5047194;28;20017;-65
2021/07/31 06:35:24;;;;;;;9.23;1.70;;;;;;;24.83;51.81;98839.81;5048289;28;20017;-65
2021/07/31 06:37:50;;;;;;;8.30;1.80;;;;;;;25.35;49.57;98817.97;5054395;28;20132;-65
2021/07/31 06:40:15;;;;;;;7.95;1.90;;;;;;;25.28;47.76;98747.47;5059126;28;20031;-65
2021/07/31 06:42:41;;;;;;;4.35;1.52;;;;;;;24.91;51.23;98727.03;5057382;28;20312;-65
2021/07/31 06:45:06;;;;;;;8.13;1.70;;;;;;;25.29;49.95;98705.22;5059048;28;20025;-65
2021/07/31 06:47:32;;;;;;;6.32;1.77;;;;;;;25.29;49.79;98667.50;5058964;28;20021;-65
2021/07/31 06:49:57;;;;;;;6.35;1.90;;;;;;;25.72;49.00;98648.84;5060538;28;20275;-65
2021/07/31 06:52:23;;;;;;;9.40;1.85;;;;;;;25.54;48.70;98626.03;5061004;28;20358;-65
2021/07/31 06:54:48;;;;;;;6.25;1.95;;;;;;;25.70;48.43;98634.59;5058378;28;20021;-65
2021/07/31 06:57:13;;;;;;;6.93;1.90;;;;;;;25.43;50.18;98601.78;5053587;28;20391;-65
2021/07/31 06:59:39;;;;;;;9.25;2.30;;;;;;;25.52;49.07;98603.72;5045174;28;20367;-65
2021/07/31 07:02:05;;;;;;;4.50;1.77;;;;;;;26.15;48.27;98585.03;5045134;28;20032;-65
2021/07/31 07:04:30;;;;;;;1.95;0.80;;;;;;;26.36;47.82;98558.97;5045216;28;20081;-65
2021/07/31 07:06:56;;;;;;;5.40;1.80;;;;;;;26.15;47.90;98528.38;5045193;28;20041;-65
2021/07/31 07:09:21;;;;;;;8.50;2.03;;;;;;;26.30;48.65;98524.38;5044860;28;20025;-65
2021/07/31 07:11:47;;;;;;;6.70;1.85;;;;;;;26.30;45.96;98505.50;5045124;28;20021;-65
2021/07/31 07:14:12;;;;;;;10.63;1.70;;;;;;;26.22;48.69;98510.66;5045104;28;20084;-65
2021/07/31 07:16:38;;;;;;;7.45;1.60;;;;;;;25.22;49.59;98470.44;5045030;28;20025;-65
2021/07/31 07:19:03;;;;;;;7.72;2.28;;;;;;;26.01;47.04;98501.69;5045002;28;20024;-65
2021/07/31 07:21:29;;;;;;;7.32;1.80;;;;;;;25.98;46.95;98489.34;5044888;28;20025;-65
2021/07/31 07:23:54;;;;;;;5.53;1.58;;;;;;;25.84;47.17;98486.03;5045011;28;20041;-65
2021/07/31 07:26:20;;;;;;;9.95;2.00;;;;;;;25.56;48.40;98481.22;5044934;28;20215;-65
2021/07/31 07:28:45;;;;;;;5.80;1.40;;;;;;;26.09;48.28;98496.50;5044844;28;20028;-65
2021/07/31 07:31:12;;;;;;;8.63;1.90;;;;;;;25.95;48.42;98488.69;5044743;28;20067;-65
2021/07/31 07:33:37;;;;;;;8.25;2.00;;;;;;;26.51;47.23;98498.28;5044725;28;20029;-65
2021/07/31 07:36:10;;;;;;;7.35;1.63;;;;;;;26.71;48.77;98489.34;5044688;28;20034;-65
2021/07/31 07:38:35;;;;;;;7.55;1.50;;;;;;;26.35;46.85;98470.88;5042876;28;20040;-65
2021/07/31 07:41:01;;;;;;;6.32;1.92;;;;;;;26.85;46.56;98480.88;5044246;28;20025;-65
2021/07/31 07:43:26;;;;;;;5.80;1.77;;;;;;;27.37;47.92;98499.66;5044539;28;20044;-65
2021/07/31 07:45:52;;;;;;;3.40;1.33;;;;;;;27.49;43.37;98498.53;5044520;28;20018;-65
2021/07/31 07:48:17;;;;;;;8.27;1.48;;;;;;;27.55;42.98;98480.91;5044513;28;20048;-65
2021/07/31 07:50:42;;;;;;;8.00;1.42;;;;;;;27.17;43.93;98465.38;5044458;28;20045;-65
2021/07/31 07:53:08;;;;;;;9.55;1.42;;;;;;;27.38;45.48;98479.72;5044391;28;20025;-65
2021/07/31 07:55:33;;;;;;;6.22;1.40;;;;;;;27.95;43.19;98490.69;5044291;28;20025;-65
2021/07/31 07:57:59;;;;;;;5.85;1.63;;;;;;;27.42;43.66;98459.53;5044304;28;20056;-65
2021/07/31 08:00:24;;;;;;;4.53;1.60;;;;;;;28.43;44.78;98488.84;5044090;28;20044;-65
2021/07/31 08:02:49;;;;;;;7.03;1.40;;;;;;;28.72;43.15;98494.22;5044085;28;20029;-65
2021/07/31 08:05:15;;;;;;;7.18;1.63;;;;;;;28.14;42.07;98458.22;5043065;28;20029;-65
2021/07/31 08:07:43;;;;;;;141.48;17.80;;;;;;;28.47;43.94;98471.31;5044129;28;20021;-65
2021/07/31 08:10:09;;;;;;;7.82;1.48;;;;;;;28.25;42.23;98455.34;5044125;28;20029;-65
2021/07/31 08:12:35;;;;;;;3.28;1.25;;;;;;;28.80;41.71;98473.56;5044342;28;20013;-65
2021/07/31 08:15:00;;;;;;;7.18;1.52;;;;;;;28.46;41.21;98463.34;5044143;28;20350;-65
2021/07/31 08:17:25;;;;;;;6.72;1.85;;;;;;;28.50;40.66;98525.19;5044043;28;20021;-65
2021/07/31 08:19:51;;;;;;;6.93;1.52;;;;;;;27.76;41.90;98485.22;5043967;28;20021;-65
2021/07/31 08:22:16;;;;;;;3.90;1.40;;;;;;;27.45;44.62;98480.88;5043573;28;20028;-65
2021/07/31 08:24:42;;;;;;;74.72;5.93;;;;;;;28.52;43.28;98501.53;5043933;28;20028;-65
2021/07/31 08:27:07;;;;;;;6.43;1.55;;;;;;;28.58;40.10;98503.69;5043912;28;20025;-65
2021/07/31 08:29:33;;;;;;;3.47;1.23;;;;;;;28.34;42.20;98481.56;5042729;28;20021;-65
2021/07/31 08:31:58;;;;;;;11.23;1.90;;;;;;;27.38;45.44;98447.28;5043857;28;20208;-65
2021/07/31 08:34:23;;;;;;;5.13;1.40;;;;;;;27.34;44.71;98459.38;5043849;28;20021;-66
2021/07/31 08:36:49;;;;;;;6.25;1.73;;;;;;;26.69;46.35;98430.06;5043873;28;20185;-66
2021/07/31 08:39:14;;;;;;;5.07;1.40;;;;;;;26.83;45.47;98428.84;5043979;28;20021;-65
2021/07/31 08:41:40;;;;;;;5.15;1.60;;;;;;;27.00;44.95;98422.81;5043693;28;20088;-65
2021/07/31 08:44:05;;;;;;;9.07;1.92;;;;;;;26.98;44.41;98427.47;5043745;28;20028;-65
2021/07/31 08:46:34;;;;;;;7.82;1.92;;;;;;;26.34;47.35;98415.19;5043735;28;20041;-65
2021/07/31 08:49:00;;;;;;;8.23;2.05;;;;;;;26.78;45.76;98431.97;5043692;28;20021;-65
2021/07/31 08:51:29;;;;;;;6.88;1.90;;;;;;;26.79;45.29;98413.88;5043643;28;20013;-65
2021/07/31 08:53:54;;;;;;;7.30;1.67;;;;;;;26.66;46.21;98399.75;5043691;28;20276;-65
2021/07/31 08:56:20;;;;;;;7.43;1.50;;;;;;;27.37;45.78;98426.66;5043660;28;20067;-65
2021/07/31 08:58:45;;;;;;;12.13;2.00;;;;;;;27.97;44.44;98433.72;5043475;28;20108;-65
2021/07/31 09:01:11;;;;;;;7.72;1.80;;;;;;;28.69;41.49;98465.56;5043577;28;20375;-65
2021/07/31 09:03:46;;;;;;;7.18;1.65;;;;;;;26.95;44.21;98393.50;5043770;28;20109;-65
2021/07/31 09:06:29;;;;;;;5.53;1.38;;;;;;;27.81;42.67;98438.81;5043819;28;20308;-65
2021/07/31 09:08:55;;;;;;;9.07;1.67;;;;;;;27.64;44.67;98415.16;5043814;28;20048;-65
2021/07/31 09:11:21;;;;;;;3.90;1.50;;;;;;;27.86;44.90;98423.03;5043604;28;20033;-65
2021/07/31 09:13:47;;;;;;;10.68;1.95;;;;;;;27.47;44.44;98386.97;5043597;28;20021;-65
2021/07/31 09:16:12;;;;;;;6.28;1.90;;;;;;;28.18;45.22;98413.63;5043488;28;20217;-65
2021/07/31 09:18:44;;;;;;;6.88;1.95;;;;;;;27.94;45.94;98402.41;5043467;28;20370;-65
2021/07/31 09:21:11;;;;;;;;;;;;;;;28.24;44.30;98421.16;5043836;28;20025;-65
2021/07/31 09:23:51;;;;;;;6.25;1.73;;;;;;;26.76;46.03;98357.44;5043392;28;19909;-65
2021/07/31 09:26:36;;;;;;;8.10;1.67;;;;;;;26.31;46.39;98347.97;5043440;28;20017;-65
2021/07/31 09:29:12;;;;;;;7.00;1.80;;;;;;;25.74;47.22;98321.47;5043406;28;20063;-65
2021/07/31 09:31:46;;;;;;;4.80;1.70;;;;;;;25.10;49.71;98301.75;5043592;28;20228;-65
2021/07/31 09:34:23;;;;;;;10.25;1.92;;;;;;;26.58;47.53;98359.06;5046965;28;20092;-65
2021/07/31 09:36:48;;;;;;;6.00;1.70;;;;;;;26.24;48.10;98344.09;5046978;28;20194;-65
2021/07/31 09:39:14;;;;;;;5.32;1.33;;;;;;;26.50;46.49;98339.97;5047012;28;20109;-65
2021/07/31 09:41:41;;;;;;;6.57;1.73;;;;;;;25.36;48.39;98291.53;5046795;28;20423;-65
2021/07/31 09:44:06;;;;;;;5.85;1.55;;;;;;;25.06;51.33;98300.28;5047080;28;20064;-65
2021/07/31 09:46:49;;;;;;;11.23;1.40;;;;;;;24.93;47.92;98299.59;5046753;28;20240;-65
2021/07/31 09:49:20;;;;;;;3.90;1.42;;;;;;;24.98;49.86;98308.16;5046769;28;20028;-65
2021/07/31 09:51:46;;;;;;;5.07;1.52;;;;;;;24.77;51.98;98296.44;5046674;28;20085;-65
2021/07/31 09:54:14;;;;;;;7.50;1.90;;;;;;;25.20;50.60;98308.09;5046609;28;20029;-65
2021/07/31 09:56:47;;;;;;;12.68;1.80;;;;;;;25.30;49.68;98317.13;5046581;28;20041;-65
2021/07/31 09:59:17;;;;;;;5.10;1.80;;;;;;;25.17;49.28;98313.75;5045284;28;20340;-65
2021/07/31 10:01:50;;;;;;;6.22;1.60;;;;;;;25.22;49.85;98289.13;5046349;28;20025;-65
2021/07/31 10:04:16;;;;;;;4.85;1.85;;;;;;;24.98;49.59;98283.06;5046444;28;20031;-65
2021/07/31 10:06:43;;;;;;;7.97;1.75;;;;;;;25.36;50.41;98306.81;5045242;28;20064;-65
2021/07/31 10:09:09;;;;;;;6.47;1.58;;;;;;;26.06;48.79;98329.50;5046363;28;20045;-65
2021/07/31 10:11:37;;;;;;;3.92;1.20;;;;;;;25.93;47.79;98312.66;5045146;28;20079;-65
2021/07/31 10:14:05;;;;;;;7.63;1.42;;;;;;;25.42;49.61;98282.94;5046220;28;20025;-65
2021/07/31 10:16:33;;;;;;;5.50;1.98;;;;;;;26.36;47.92;98321.44;5046185;28;20266;-65
2021/07/31 10:19:02;;;;;;;9.40;2.10;;;;;;;26.45;47.42;98318.78;5046183;28;20219;-65
2021/07/31 10:21:29;;;;;;;8.60;1.90;;;;;;;25.50;49.07;98274.19;5046059;28;20075;-65
2021/07/31 10:24:00;;;;;;;7.15;2.47;;;;;;;25.70;49.39;98284.13;5046053;28;20025;-65
2021/07/31 10:26:27;;;;;;;8.88;1.67;;;;;;;26.25;48.30;98310.72;5046076;28;20029;-65
2021/07/31 10:28:52;;;;;;;4.93;1.58;;;;;;;25.48;47.98;98268.06;5046280;28;20063;-65
2021/07/31 10:31:33;;;;;;;528.50;45.47;;;;;;;25.09;50.03;98262.31;5044783;28;20330;-65
2021/07/31 10:33:59;;;;;;;5.60;1.85;;;;;;;24.36;51.68;98247.78;5045890;28;20026;-65
2021/07/31 10:36:33;;;;;;;7.55;2.00;;;;;;;25.12;49.50;98272.84;5051063;28;20043;-65
2021/07/31 10:39:01;;;;;;;6.75;2.17;;;;;;;24.40;52.21;98251.09;5055448;28;20012;-65
2021/07/31 10:42:00;;;;;;;9.35;2.03;;;;;;;24.39;51.95;98239.47;5057509;28;20013;-65
2021/07/31 10:44:26;;;;;;;5.88;1.85;;;;;;;24.97;49.94;98263.34;5052973;28;20030;-65
2021/07/31 10:47:20;;;;;;;5.95;1.90;;;;;;;25.24;48.39;98261.06;5048104;28;20243;-65
2021/07/31 10:49:46;;;;;;;4.28;1.70;;;;;;;25.24;48.64;98255.66;5045654;28;20018;-65
2021/07/31 10:52:50;;;;;;;21.17;2.30;;;;;;;25.46;49.45;98253.88;5044582;28;20194;-65
2021/07/31 10:55:16;;;;;;;8.23;3.20;;;;;;;25.33;51.10;98255.88;5044098;28;20043;-66
2021/07/31 10:57:53;;;;;;;5.05;1.92;;;;;;;25.50;48.48;98256.16;5044482;28;20025;-65
2021/07/31 11:00:27;;;;;;;8.95;1.90;;;;;;;25.30;49.34;98238.97;5044313;28;20382;-65
2021/07/31 11:02:54;;;;;;;6.13;2.10;;;;;;;25.41;51.96;98254.28;5044237;28;20052;-65
2021/07/31 11:05:20;;;;;;;8.15;2.30;;;;;;;25.81;49.02;98278.69;5045485;28;20029;-65
2021/07/31 11:07:58;;;;;;;6.22;1.98;;;;;;;25.83;51.00;98264.06;5043885;28;20048;-65
2021/07/31 11:10:34;;;;;;;6.35;1.80;;;;;;;26.25;48.34;98297.25;5048047;28;20017;-65
2021/07/31 11:13:00;;;;;;;6.45;2.47;;;;;;;26.68;47.77;98295.19;5062837;28;20020;-65
2021/07/31 11:15:26;;;;;;;7.93;1.88;;;;;;;27.08;46.70;98301.38;5064099;28;20244;-65
2021/07/31 11:17:57;;;;;;;6.43;2.00;;;;;;;25.41;48.75;98250.72;5064118;28;20021;-65
2021/07/31 11:20:34;;;;;;;7.00;2.13;;;;;;;24.42;50.15;98214.19;5063627;28;20032;-65
2021/07/31 11:23:05;;;;;;;6.65;1.75;;;;;;;24.14;51.69;98212.84;5054600;28;20075;-65
2021/07/31 11:25:31;;;;;;;3.83;1.70;;;;;;;24.07;52.24;98211.63;5050885;28;20218;-64
2021/07/31 11:28:04;;;;;;;3.72;1.90;;;;;;;24.40;51.65;98214.31;5043895;28;20084;-64
2021/07/31 11:30:37;;;;;;;5.53;1.80;;;;;;;24.35;51.41;98227.25;5043903;28;20132;-64